createdAt,value
2022-12-06T00:00:14.489Z,101920.72
2022-12-06T00:02:46.505Z,101911.28
2022-12-06T00:05:18.468Z,101911.44
2022-12-06T00:07:50.465Z,101911.50
2022-12-06T00:10:22.418Z,101915.16
2022-12-06T00:12:54.395Z,101919.50
2022-12-06T00:15:26.343Z,101910.19
2022-12-06T00:17:58.356Z,101910.19
2022-12-06T00:20:30.320Z,101900.00
2022-12-06T00:23:02.320Z,101900.16
2022-12-06T00:25:36.092Z,101903.56
2022-12-06T00:28:08.065Z,101902.03
2022-12-06T00:30:40.017Z,101906.31
2022-12-06T00:33:11.943Z,101912.50
2022-12-06T00:35:43.842Z,101900.41
2022-12-06T00:38:15.786Z,101903.13
2022-12-06T00:40:47.734Z,101898.97
2022-12-06T00:43:19.663Z,101901.63
2022-12-06T00:45:51.762Z,101906.91
2022-12-06T00:48:23.900Z,101901.56
2022-12-06T00:50:56.136Z,101907.78
2022-12-06T00:53:28.674Z,101900.13
2022-12-06T00:56:00.613Z,101894.09
2022-12-06T00:58:32.603Z,101896.84
2022-12-06T01:01:27.441Z,101894.47
2022-12-06T01:04:03.290Z,101902.38
2022-12-06T01:06:38.007Z,101898.09
2022-12-06T01:09:11.193Z,101902.50
2022-12-06T01:11:43.170Z,101896.47
2022-12-06T01:14:15.143Z,101894.88
2022-12-06T01:16:47.148Z,101899.94
2022-12-06T01:19:19.128Z,101899.22
2022-12-06T01:21:51.044Z,101896.63
2022-12-06T01:24:22.975Z,101886.78
2022-12-06T01:26:54.991Z,101893.84
2022-12-06T01:29:26.955Z,101889.69
2022-12-06T01:31:58.998Z,101892.38
2022-12-06T01:34:30.927Z,101879.38
2022-12-06T01:37:02.956Z,101889.00
2022-12-06T01:39:34.973Z,101885.59
2022-12-06T01:42:06.925Z,101882.16
2022-12-06T01:44:40.802Z,101884.84
2022-12-06T01:47:37.750Z,101890.88
2022-12-06T01:50:32.813Z,101888.84
2022-12-06T01:53:09.000Z,101889.78
2022-12-06T01:55:41.526Z,101883.66
2022-12-06T01:58:23.968Z,101879.41
2022-12-06T02:00:56.091Z,101882.06
2022-12-06T02:03:31.828Z,101885.53
2022-12-06T02:06:09.203Z,101883.66
2022-12-06T02:08:41.574Z,101889.78
2022-12-06T02:11:13.942Z,101882.84
2022-12-06T02:13:46.364Z,101883.00
2022-12-06T02:16:54.675Z,101885.53
2022-12-06T02:20:04.467Z,101876.25
2022-12-06T02:23:00.573Z,101871.88
2022-12-06T02:26:13.312Z,101868.47
2022-12-06T02:29:45.321Z,101868.31
2022-12-06T02:32:34.297Z,101870.91
2022-12-06T02:35:31.721Z,101870.72
2022-12-06T02:38:13.490Z,101870.81
2022-12-06T02:40:57.035Z,101865.69
2022-12-06T02:43:48.055Z,101859.56
2022-12-06T02:46:22.826Z,101861.38
2022-12-06T02:48:57.163Z,101864.84
2022-12-06T02:51:32.984Z,101862.41
2022-12-06T02:54:08.401Z,101853.78
2022-12-06T02:56:40.319Z,101858.97
2022-12-06T02:59:12.276Z,101849.44
2022-12-06T03:02:00.825Z,101855.34
2022-12-06T03:05:14.214Z,101852.66
2022-12-06T03:07:47.152Z,101855.41
2022-12-06T03:10:46.566Z,101859.81
2022-12-06T03:13:34.941Z,101863.28
2022-12-06T03:16:42.521Z,101866.56
2022-12-06T03:19:21.816Z,101860.69
2022-12-06T03:22:24.747Z,101863.34
2022-12-06T03:24:59.116Z,101865.97
2022-12-06T03:27:31.975Z,101862.41
2022-12-06T03:30:16.487Z,101868.41
2022-12-06T03:32:50.992Z,101862.50
2022-12-06T03:35:29.163Z,101861.56
2022-12-06T03:38:19.778Z,101859.84
2022-12-06T03:40:54.282Z,101858.03
2022-12-06T03:43:26.343Z,101858.78
2022-12-06T03:46:10.797Z,101853.66
2022-12-06T03:48:52.970Z,101853.66
2022-12-06T03:51:29.745Z,101851.88
2022-12-06T03:54:06.582Z,101851.94
2022-12-06T03:56:39.588Z,101857.91
2022-12-06T03:59:12.158Z,101862.34
2022-12-06T04:01:44.620Z,101861.03
2022-12-06T04:04:16.720Z,101861.06
2022-12-06T04:06:48.704Z,101857.66
2022-12-06T04:09:38.976Z,101851.00
2022-12-06T04:12:29.177Z,101851.97
2022-12-06T04:15:01.082Z,101846.00
2022-12-06T04:17:51.978Z,101850.03
2022-12-06T04:20:25.004Z,101851.94
2022-12-06T04:23:06.290Z,101844.34
2022-12-06T04:25:38.244Z,101853.00
2022-12-06T04:28:29.073Z,101850.38
2022-12-06T04:31:22.239Z,101842.50
2022-12-06T04:34:12.876Z,101842.59
2022-12-06T04:37:03.935Z,101840.97
2022-12-06T04:39:36.281Z,101833.25
2022-12-06T04:42:27.119Z,101840.09
2022-12-06T04:44:59.158Z,101840.00
2022-12-06T04:47:31.268Z,101830.56
2022-12-06T04:50:03.874Z,101839.16
2022-12-06T04:52:36.453Z,101826.91
2022-12-06T04:55:09.162Z,101832.84
2022-12-06T04:57:41.069Z,101833.50
2022-12-06T05:00:13.801Z,101831.78
2022-12-06T05:02:45.771Z,101826.75
2022-12-06T05:05:17.697Z,101826.78
2022-12-06T05:07:49.859Z,101834.63
2022-12-06T05:10:21.958Z,101836.44
2022-12-06T05:12:53.887Z,101826.06
2022-12-06T05:15:29.164Z,101820.09
2022-12-06T05:18:01.433Z,101814.06
2022-12-06T05:20:33.373Z,101820.88
2022-12-06T05:23:05.272Z,101820.97
2022-12-06T05:25:37.296Z,101822.59
2022-12-06T05:28:09.672Z,101823.28
2022-12-06T05:30:41.751Z,101823.13
2022-12-06T05:33:13.653Z,101824.19
2022-12-06T05:35:45.690Z,101819.94
2022-12-06T05:38:18.411Z,101816.53
2022-12-06T05:40:50.443Z,101818.03
2022-12-06T05:43:22.389Z,101822.25
2022-12-06T05:45:54.434Z,101822.94
2022-12-06T05:48:26.623Z,101816.28
2022-12-06T05:50:58.805Z,101812.81
2022-12-06T05:53:30.866Z,101815.00
2022-12-06T05:56:09.231Z,101822.81
2022-12-06T05:58:41.293Z,101817.59
2022-12-06T06:01:13.377Z,101820.25
2022-12-06T06:03:47.734Z,101822.09
2022-12-06T06:06:20.001Z,101820.34
2022-12-06T06:08:52.735Z,101817.78
2022-12-06T06:11:24.772Z,101824.59
2022-12-06T06:13:56.795Z,101823.72
2022-12-06T06:16:29.133Z,101829.88
2022-12-06T06:19:01.809Z,101828.94
2022-12-06T06:21:33.939Z,101826.34
2022-12-06T06:24:06.567Z,101828.16
2022-12-06T06:26:38.618Z,101832.13
2022-12-06T06:29:10.530Z,101822.56
2022-12-06T06:31:42.728Z,101829.56
2022-12-06T06:34:15.374Z,101825.38
2022-12-06T06:36:47.565Z,101827.13
2022-12-06T06:39:19.762Z,101830.56
2022-12-06T06:41:52.890Z,101822.78
2022-12-06T06:44:24.875Z,101828.00
2022-12-06T06:46:56.822Z,101837.53
2022-12-06T06:49:28.745Z,101831.38
2022-12-06T06:52:00.681Z,101835.94
2022-12-06T06:54:32.680Z,101838.31
2022-12-06T06:57:04.808Z,101837.44
2022-12-06T06:59:36.720Z,101839.22
2022-12-06T07:02:14.287Z,101835.69
2022-12-06T07:04:46.340Z,101841.50
2022-12-06T07:07:21.228Z,101845.06
2022-12-06T07:09:53.437Z,101849.38
2022-12-06T07:12:25.409Z,101850.94
2022-12-06T07:14:57.409Z,101847.66
2022-12-06T07:17:29.351Z,101848.69
2022-12-06T07:20:01.598Z,101853.16
2022-12-06T07:22:33.886Z,101859.09
2022-12-06T07:25:06.344Z,101852.31
2022-12-06T07:27:38.350Z,101847.81
2022-12-06T07:30:15.777Z,101852.16
2022-12-06T07:32:48.957Z,101850.44
2022-12-06T07:35:21.561Z,101860.09
2022-12-06T07:37:53.518Z,101856.78
2022-12-06T07:40:48.412Z,101860.28
2022-12-06T07:43:35.935Z,101853.34
2022-12-06T07:46:12.329Z,101853.34
2022-12-06T07:48:44.332Z,101859.47
2022-12-06T07:51:16.326Z,101861.16
2022-12-06T07:53:48.255Z,101863.03
2022-12-06T07:56:20.180Z,101855.41
2022-12-06T07:58:52.486Z,101862.19
2022-12-06T08:01:24.668Z,101858.78
2022-12-06T08:03:59.501Z,101860.38
2022-12-06T08:06:33.109Z,101857.84
2022-12-06T08:09:06.918Z,101853.66
2022-12-06T08:11:38.933Z,101859.75
2022-12-06T08:14:11.779Z,101869.34
2022-12-06T08:16:43.746Z,101870.22
2022-12-06T08:19:15.680Z,101876.38
2022-12-06T08:21:48.539Z,101876.34
2022-12-06T08:24:20.542Z,101879.75
2022-12-06T08:26:53.251Z,101879.91
2022-12-06T08:29:26.560Z,101872.88
2022-12-06T08:31:58.849Z,101878.97
2022-12-06T08:34:30.907Z,101878.06
2022-12-06T08:37:03.728Z,101870.19
2022-12-06T08:39:35.870Z,101875.50
2022-12-06T08:42:08.204Z,101874.00
2022-12-06T08:44:40.175Z,101873.41
2022-12-06T08:47:12.251Z,101876.94
2022-12-06T08:49:44.198Z,101882.81
2022-12-06T08:52:16.577Z,101872.44
2022-12-06T08:54:48.674Z,101881.53
2022-12-06T08:57:20.731Z,101880.84
2022-12-06T08:59:52.730Z,101880.94
2022-12-06T09:02:24.698Z,101884.66
2022-12-06T09:04:56.735Z,101877.81
2022-12-06T09:07:28.738Z,101879.72
2022-12-06T09:10:00.936Z,101873.03
2022-12-06T09:12:33.101Z,101875.81
2022-12-06T09:15:06.117Z,101878.69
2022-12-06T09:17:38.041Z,101876.88
2022-12-06T09:20:11.155Z,101883.00
2022-12-06T09:22:43.541Z,101875.91
2022-12-06T09:25:15.791Z,101875.03
2022-12-06T09:27:48.279Z,101875.03
2022-12-06T09:30:20.593Z,101880.44
2022-12-06T09:32:53.420Z,101882.50
2022-12-06T09:35:25.534Z,101877.94
2022-12-06T09:37:59.207Z,101881.69
2022-12-06T09:40:47.040Z,101890.50
2022-12-06T09:43:45.359Z,101875.84
2022-12-06T09:46:37.711Z,101889.66
2022-12-06T09:49:29.850Z,101885.28
2022-12-06T09:52:18.782Z,101877.72
2022-12-06T09:55:11.613Z,101886.66
2022-12-06T09:58:06.687Z,101881.47
2022-12-06T10:00:51.791Z,101881.63
2022-12-06T10:04:20.860Z,101882.06
2022-12-06T10:07:11.284Z,101884.78
2022-12-06T10:10:09.533Z,101888.59
2022-12-06T10:12:56.660Z,101886.09
2022-12-06T10:15:58.664Z,101883.50
2022-12-06T10:18:39.586Z,101876.78
2022-12-06T10:21:17.012Z,101878.69
2022-12-06T10:24:01.916Z,101871.91
2022-12-06T10:26:51.938Z,101872.00
2022-12-06T10:29:36.006Z,101861.84
2022-12-06T10:33:03.844Z,101852.47
2022-12-06T10:35:53.450Z,101855.94
2022-12-06T10:38:30.692Z,101857.91
2022-12-06T10:41:15.724Z,101854.47
2022-12-06T10:43:54.800Z,101862.22
2022-12-06T10:47:06.318Z,101853.72
2022-12-06T10:50:08.967Z,101858.13
2022-12-06T10:53:04.815Z,101845.72
2022-12-06T10:55:53.896Z,101846.56
2022-12-06T10:58:43.459Z,101856.97
2022-12-06T11:01:24.626Z,101840.53
2022-12-06T11:04:16.973Z,101843.91
2022-12-06T11:07:06.566Z,101848.81
2022-12-06T11:09:49.722Z,101840.72
2022-12-06T11:12:35.390Z,101836.28
2022-12-06T11:15:17.834Z,101840.41
2022-12-06T11:18:02.225Z,101840.13
2022-12-06T11:20:44.327Z,101841.94
2022-12-06T11:23:32.562Z,101844.44
2022-12-06T11:26:40.487Z,101839.22
2022-12-06T11:29:15.399Z,101836.72
2022-12-06T11:32:04.369Z,101840.22
2022-12-06T11:34:55.449Z,101838.50
2022-12-06T11:37:32.000Z,101842.03
2022-12-06T11:40:20.420Z,101840.94
2022-12-06T11:42:53.486Z,101834.94
2022-12-06T11:45:32.405Z,101829.81
2022-12-06T11:48:17.712Z,101829.72
2022-12-06T11:50:52.050Z,101824.66
2022-12-06T11:53:27.724Z,101824.47
2022-12-06T11:56:27.106Z,101827.72
2022-12-06T11:59:17.214Z,101826.75
2022-12-06T12:01:53.194Z,101813.59
2022-12-06T12:04:42.009Z,101817.03
2022-12-06T12:07:20.819Z,101817.56
2022-12-06T12:09:55.790Z,101812.56
2022-12-06T12:13:04.788Z,101807.63
2022-12-06T12:15:37.493Z,101809.63
2022-12-06T12:18:24.254Z,101812.13
2022-12-06T12:20:58.255Z,101800.72
2022-12-06T12:23:45.143Z,101803.41
2022-12-06T12:26:21.017Z,101805.88
2022-12-06T12:29:17.945Z,101799.16
2022-12-06T12:31:59.622Z,101797.56
2022-12-06T12:34:31.978Z,101797.75
2022-12-06T12:37:09.195Z,101791.72
2022-12-06T12:39:51.327Z,101792.59
2022-12-06T12:42:33.239Z,101797.91
2022-12-06T12:45:06.330Z,101792.78
2022-12-06T12:47:38.306Z,101791.06
2022-12-06T12:50:23.980Z,101783.13
2022-12-06T12:52:56.504Z,101798.78
2022-12-06T12:55:31.439Z,101782.34
2022-12-06T12:58:09.439Z,101786.19
2022-12-06T13:00:46.225Z,101790.63
2022-12-06T13:03:51.839Z,101785.59
2022-12-06T13:07:03.229Z,101781.25
2022-12-06T13:10:05.456Z,101769.13
2022-12-06T13:12:56.786Z,101772.53
2022-12-06T13:15:39.653Z,101775.97
2022-12-06T13:18:24.608Z,101765.72
2022-12-06T13:21:03.958Z,101776.16
2022-12-06T13:23:36.894Z,101768.22
2022-12-06T13:26:32.678Z,101764.94
2022-12-06T13:29:55.663Z,101770.41
2022-12-06T13:32:42.011Z,101762.81
2022-12-06T13:35:26.071Z,101762.19
2022-12-06T13:38:26.090Z,101757.16
2022-12-06T13:41:36.142Z,101753.50
2022-12-06T13:44:42.139Z,101756.06
2022-12-06T13:47:39.868Z,101750.84
2022-12-06T13:50:18.203Z,101746.31
2022-12-06T13:52:53.494Z,101752.97
2022-12-06T13:55:25.604Z,101754.25
2022-12-06T13:58:17.570Z,101751.97
2022-12-06T14:00:50.983Z,101756.94
2022-12-06T14:03:25.713Z,101762.19
2022-12-06T14:06:15.806Z,101768.41
2022-12-06T14:08:59.655Z,101769.28
2022-12-06T14:11:38.195Z,101768.47
2022-12-06T14:14:24.308Z,101774.59
2022-12-06T14:17:26.735Z,101769.41
2022-12-06T14:20:23.251Z,101768.66
2022-12-06T14:22:55.370Z,101756.75
2022-12-06T14:25:31.532Z,101757.72
2022-12-06T14:28:13.086Z,101753.38
2022-12-06T14:30:46.302Z,101755.00
2022-12-06T14:33:22.485Z,101756.66
2022-12-06T14:35:55.491Z,101763.66
2022-12-06T14:38:30.978Z,101756.72
2022-12-06T14:41:21.364Z,101748.06
2022-12-06T14:43:53.186Z,101755.63
2022-12-06T14:46:27.379Z,101741.53
2022-12-06T14:49:17.779Z,101745.59
2022-12-06T14:51:52.840Z,101747.69
2022-12-06T14:54:27.688Z,101741.31
2022-12-06T14:57:00.960Z,101744.53
2022-12-06T15:00:11.391Z,101745.19
2022-12-06T15:02:29.031Z,101747.53
2022-12-06T15:05:00.988Z,101748.09
2022-12-06T15:07:42.633Z,101748.00
2022-12-06T15:10:32.341Z,101752.97
2022-12-06T15:13:15.919Z,101749.31
2022-12-06T15:15:48.357Z,101746.56
2022-12-06T15:18:25.847Z,101748.28
2022-12-06T15:20:57.762Z,101751.78
2022-12-06T15:23:36.256Z,101750.28
2022-12-06T15:26:12.809Z,101752.97
2022-12-06T15:28:45.211Z,101755.47
2022-12-06T15:31:22.559Z,101754.34
2022-12-06T15:33:55.821Z,101748.97
2022-12-06T15:36:33.333Z,101745.38
2022-12-06T15:39:05.355Z,101745.13
2022-12-06T15:41:38.477Z,101738.03
2022-12-06T15:44:17.439Z,101735.31
2022-12-06T15:46:50.261Z,101730.78
2022-12-06T15:49:28.565Z,101731.53
2022-12-06T15:52:00.614Z,101735.63
2022-12-06T15:54:32.993Z,101732.00
2022-12-06T15:57:04.911Z,101731.84
2022-12-06T15:59:37.069Z,101726.63
2022-12-06T16:02:17.973Z,101734.31
2022-12-06T16:04:51.961Z,101721.34
2022-12-06T16:07:27.227Z,101726.47
2022-12-06T16:09:59.211Z,101721.94
2022-12-06T16:12:51.408Z,101725.25
2022-12-06T16:15:23.372Z,101727.91
2022-12-06T16:17:55.346Z,101728.72
2022-12-06T16:20:33.291Z,101719.91
2022-12-06T16:24:04.681Z,101719.88
2022-12-06T16:26:37.434Z,101713.69
2022-12-06T16:29:13.692Z,101708.38
2022-12-06T16:31:45.905Z,101709.97
2022-12-06T16:34:18.443Z,101715.97
2022-12-06T16:37:06.674Z,101719.50
2022-12-06T16:39:38.740Z,101712.38
2022-12-06T16:42:10.704Z,101713.09
2022-12-06T16:44:57.550Z,101718.13
2022-12-06T16:50:00.807Z,101720.66
2022-12-06T16:52:32.814Z,101724.94
2022-12-06T16:55:05.242Z,101722.28
2022-12-06T16:57:37.284Z,101713.59
2022-12-06T17:00:12.683Z,101715.31
2022-12-06T17:02:44.853Z,101716.13
2022-12-06T17:05:26.778Z,101713.34
2022-12-06T17:07:59.011Z,101712.41
2022-12-06T17:10:31.108Z,101715.88
2022-12-06T17:13:03.505Z,101720.16
2022-12-06T17:15:35.524Z,101720.09
2022-12-06T17:18:07.572Z,101709.66
2022-12-06T17:20:40.120Z,101708.59
2022-12-06T17:23:12.173Z,101717.25
2022-12-06T17:25:44.185Z,101708.50
2022-12-06T17:28:16.154Z,101703.97
2022-12-06T17:30:51.257Z,101699.56
2022-12-06T17:33:23.422Z,101697.69
2022-12-06T17:35:55.615Z,101695.94
2022-12-06T17:38:29.920Z,101701.09
2022-12-06T17:41:22.445Z,101694.88
2022-12-06T17:43:54.433Z,101688.72
2022-12-06T17:46:27.156Z,101684.59
2022-12-06T17:48:59.713Z,101676.75
2022-12-06T17:51:32.371Z,101674.91
2022-12-06T17:54:09.023Z,101678.50
2022-12-06T17:56:44.699Z,101676.63
2022-12-06T17:59:23.659Z,101673.22
2022-12-06T18:02:15.047Z,101672.22
2022-12-06T18:04:47.978Z,101673.97
2022-12-06T18:07:20.420Z,101679.31
2022-12-06T18:09:53.291Z,101677.69
2022-12-06T18:12:25.905Z,101675.22
2022-12-06T18:14:59.566Z,101672.72
2022-12-06T18:17:31.731Z,101670.81
2022-12-06T18:20:04.276Z,101666.22
2022-12-06T18:22:36.256Z,101670.56
2022-12-06T18:25:09.181Z,101670.53
2022-12-06T18:27:41.130Z,101671.28
2022-12-06T18:30:13.270Z,101673.22
2022-12-06T18:32:45.254Z,101660.19
2022-12-06T18:35:17.178Z,101656.00
2022-12-06T18:37:49.164Z,101656.06
2022-12-06T18:40:21.146Z,101660.47
2022-12-06T18:42:53.070Z,101648.53
2022-12-06T18:45:26.003Z,101652.44
2022-12-06T18:47:57.967Z,101648.19
2022-12-06T18:50:29.999Z,101647.72
2022-12-06T18:53:02.012Z,101649.38
2022-12-06T18:55:34.091Z,101650.31
2022-12-06T18:58:06.022Z,101652.53
2022-12-06T19:00:40.922Z,101650.78
2022-12-06T19:03:13.819Z,101640.56
2022-12-06T19:06:02.601Z,101636.22
2022-12-06T19:08:35.097Z,101637.22
2022-12-06T19:11:07.720Z,101635.00
2022-12-06T19:13:39.717Z,101638.66
2022-12-06T19:16:12.209Z,101641.28
2022-12-06T19:18:44.462Z,101637.00
2022-12-06T19:21:17.678Z,101638.75
2022-12-06T19:23:52.903Z,101636.56
2022-12-06T19:26:26.955Z,101639.81
2022-12-06T19:28:59.010Z,101639.25
2022-12-06T19:31:31.069Z,101637.59
2022-12-06T19:34:03.055Z,101635.72
2022-12-06T19:36:34.999Z,101635.97
2022-12-06T19:39:07.118Z,101635.38
2022-12-06T19:41:59.078Z,101628.75
2022-12-06T19:44:31.271Z,101628.03
2022-12-06T19:47:03.491Z,101624.34
2022-12-06T19:49:35.496Z,101617.38
2022-12-06T19:52:07.592Z,101610.38
2022-12-06T19:54:40.298Z,101609.72
2022-12-06T19:57:12.364Z,101614.88
2022-12-06T19:59:44.474Z,101600.09
2022-12-06T20:02:16.580Z,101600.41
2022-12-06T20:04:48.816Z,101598.97
2022-12-06T20:07:20.832Z,101591.09
2022-12-06T20:09:52.790Z,101600.50
2022-12-06T20:12:24.823Z,101593.53
2022-12-06T20:14:56.846Z,101591.78
2022-12-06T20:17:28.937Z,101591.03
2022-12-06T20:20:02.174Z,101591.78
2022-12-06T20:22:34.412Z,101593.63
2022-12-06T20:25:06.828Z,101588.50
2022-12-06T20:27:54.527Z,101583.25
2022-12-06T20:30:27.830Z,101577.38
2022-12-06T20:33:00.126Z,101569.44
2022-12-06T20:35:32.099Z,101571.44
2022-12-06T20:38:04.195Z,101567.09
2022-12-06T20:40:36.211Z,101569.69
2022-12-06T20:43:08.425Z,101567.03
2022-12-06T20:45:40.401Z,101568.81
2022-12-06T20:48:12.435Z,101560.94
2022-12-06T20:50:44.361Z,101559.28
2022-12-06T20:53:16.858Z,101554.31
2022-12-06T20:55:48.828Z,101554.34
2022-12-06T20:58:20.958Z,101557.72
2022-12-06T21:00:52.892Z,101559.28
2022-12-06T21:03:25.368Z,101555.91
2022-12-06T21:06:05.923Z,101558.84
2022-12-06T21:08:38.496Z,101566.75
2022-12-06T21:11:26.201Z,101554.72
2022-12-06T21:13:58.620Z,101552.56
2022-12-06T21:16:33.086Z,101556.84
2022-12-06T21:19:14.222Z,101553.72
2022-12-06T21:21:53.965Z,101555.09
2022-12-06T21:24:25.904Z,101548.97
2022-12-06T21:26:57.841Z,101544.78
2022-12-06T21:29:31.139Z,101546.66
2022-12-06T21:32:03.203Z,101542.56
2022-12-06T21:34:35.323Z,101536.50
2022-12-06T21:37:09.092Z,101527.88
2022-12-06T21:39:41.134Z,101529.50
2022-12-06T21:42:17.543Z,101532.31
2022-12-06T21:44:49.479Z,101525.31
2022-12-06T21:47:21.527Z,101527.88
2022-12-06T21:49:53.511Z,101519.97
2022-12-06T21:52:26.363Z,101517.16
2022-12-06T21:54:58.371Z,101517.25
2022-12-06T21:57:34.108Z,101505.78
2022-12-06T22:00:07.507Z,101505.56
2022-12-06T22:02:39.663Z,101507.44
2022-12-06T22:05:12.110Z,101503.41
2022-12-06T22:07:44.112Z,101493.81
2022-12-06T22:10:16.266Z,101495.66
2022-12-06T22:12:48.366Z,101505.25
2022-12-06T22:15:20.513Z,101505.25
2022-12-06T22:17:52.474Z,101504.47
2022-12-06T22:20:24.519Z,101512.94
2022-12-06T22:22:56.516Z,101505.34
2022-12-06T22:25:28.684Z,101506.28
2022-12-06T22:28:00.615Z,101503.78
2022-12-06T22:30:32.593Z,101509.03
2022-12-06T22:33:04.594Z,101501.44
2022-12-06T22:35:36.688Z,101504.97
2022-12-06T22:38:08.802Z,101508.69
2022-12-06T22:40:40.748Z,101507.94
2022-12-06T22:43:12.700Z,101505.34
2022-12-06T22:45:44.680Z,101496.84
2022-12-06T22:48:16.629Z,101484.16
2022-12-06T22:50:48.580Z,101483.50
2022-12-06T22:53:20.496Z,101469.66
2022-12-06T22:55:52.552Z,101470.28
2022-12-06T22:58:24.465Z,101478.34
2022-12-06T23:00:56.549Z,101475.81
2022-12-06T23:03:29.285Z,101468.16
2022-12-06T23:06:01.279Z,101469.91
2022-12-06T23:08:33.865Z,101468.38
2022-12-06T23:11:09.471Z,101465.03
2022-12-06T23:13:41.724Z,101472.81
2022-12-06T23:16:20.610Z,101473.69
2022-12-06T23:18:53.114Z,101464.97
2022-12-06T23:21:31.453Z,101464.19
2022-12-06T23:24:10.805Z,101462.31
2022-12-06T23:26:54.519Z,101457.41
2022-12-06T23:29:29.587Z,101450.47
2022-12-06T23:32:01.712Z,101449.59
2022-12-06T23:34:34.380Z,101449.56
2022-12-06T23:37:06.763Z,101438.31
2022-12-06T23:39:38.759Z,101438.91
2022-12-06T23:42:10.702Z,101432.13
2022-12-06T23:44:42.612Z,101429.50
2022-12-06T23:47:14.554Z,101429.28
2022-12-06T23:49:46.498Z,101433.34
2022-12-06T23:52:18.472Z,101429.06
2022-12-06T23:54:50.385Z,101431.47
2022-12-06T23:57:22.394Z,101425.28
2022-12-06T23:59:54.313Z,101415.81
